createdAt,value
2019-05-18T00:00:59.103Z,13.70
2019-05-18T00:03:28.208Z,13.70
2019-05-18T00:05:57.291Z,13.70
2019-05-18T00:08:26.416Z,13.60
2019-05-18T00:10:55.715Z,13.60
2019-05-18T00:13:24.772Z,13.70
2019-05-18T00:15:53.884Z,13.70
2019-05-18T00:18:22.978Z,13.70
2019-05-18T00:20:52.021Z,13.70
2019-05-18T00:23:21.213Z,13.70
2019-05-18T00:25:50.304Z,13.70
2019-05-18T00:28:19.358Z,13.70
2019-05-18T00:30:48.576Z,13.70
2019-05-18T00:33:17.624Z,13.70
2019-05-18T00:35:46.736Z,13.70
2019-05-18T00:38:15.971Z,13.70
2019-05-18T00:40:45.511Z,13.70
2019-05-18T00:43:14.543Z,13.70
2019-05-18T00:46:32.736Z,13.70
2019-05-18T00:49:20.974Z,13.70
2019-05-18T00:51:50.071Z,13.70
2019-05-18T00:54:40.014Z,13.70
2019-05-18T00:57:09.277Z,13.70
2019-05-18T00:59:38.311Z,13.70
2019-05-18T01:02:07.492Z,13.70
2019-05-18T01:04:36.577Z,13.70
2019-05-18T01:07:05.733Z,13.70
2019-05-18T01:09:34.845Z,13.70
2019-05-18T01:12:03.974Z,13.70
2019-05-18T01:14:33.171Z,13.70
2019-05-18T01:17:21.375Z,13.70
2019-05-18T01:19:50.665Z,13.60
2019-05-18T01:22:19.777Z,13.60
2019-05-18T01:24:49.025Z,13.60
2019-05-18T01:27:18.155Z,13.50
2019-05-18T01:29:47.270Z,13.50
2019-05-18T01:32:16.620Z,13.40
2019-05-18T01:35:09.304Z,13.40
2019-05-18T01:37:38.499Z,13.40
2019-05-18T01:40:07.970Z,13.30
2019-05-18T01:42:37.071Z,13.30
2019-05-18T01:45:16.345Z,13.20
2019-05-18T01:47:38.355Z,13.10
2019-05-18T01:50:28.092Z,13.10
2019-05-18T01:53:22.504Z,13.10
2019-05-18T01:56:19.753Z,13.00
2019-05-18T01:58:54.646Z,12.90
2019-05-18T02:01:23.734Z,12.90
2019-05-18T02:03:52.846Z,12.90
2019-05-18T02:06:21.900Z,12.80
2019-05-18T02:08:50.981Z,12.70
2019-05-18T02:11:20.050Z,12.70
2019-05-18T02:13:49.124Z,12.70
2019-05-18T02:16:18.100Z,12.60
2019-05-18T02:18:47.167Z,12.50
2019-05-18T02:21:16.264Z,12.50
2019-05-18T02:23:45.356Z,12.50
2019-05-18T02:26:14.521Z,12.40
2019-05-18T02:28:43.416Z,12.40
2019-05-18T02:31:12.496Z,12.40
2019-05-18T02:33:41.505Z,12.30
2019-05-18T02:36:10.621Z,12.40
2019-05-18T02:38:39.767Z,12.40
2019-05-18T02:41:08.851Z,12.40
2019-05-18T02:43:37.926Z,12.30
2019-05-18T02:46:07.080Z,12.40
2019-05-18T02:48:48.414Z,12.40
2019-05-18T02:51:11.123Z,12.40
2019-05-18T02:53:37.763Z,12.40
2019-05-18T02:56:06.799Z,12.40
2019-05-18T02:58:35.935Z,12.40
2019-05-18T03:01:05.141Z,12.30
2019-05-18T03:03:34.273Z,12.20
2019-05-18T03:06:03.354Z,12.20
2019-05-18T03:08:32.403Z,12.10
2019-05-18T03:11:01.669Z,12.10
2019-05-18T03:13:30.746Z,12.10
2019-05-18T03:15:59.939Z,12.00
2019-05-18T03:18:29.013Z,11.90
2019-05-18T03:20:58.099Z,11.80
2019-05-18T03:23:27.200Z,11.80
2019-05-18T03:25:56.209Z,11.80
2019-05-18T03:28:25.308Z,11.70
2019-05-18T03:30:54.388Z,11.70
2019-05-18T03:33:28.937Z,11.60
2019-05-18T03:35:54.280Z,11.50
2019-05-18T03:38:23.421Z,11.50
2019-05-18T03:40:52.552Z,11.50
2019-05-18T03:43:21.627Z,11.40
2019-05-18T03:45:50.751Z,11.50
2019-05-18T03:48:19.828Z,11.50
2019-05-18T03:50:48.904Z,11.40
2019-05-18T03:53:18.468Z,11.30
2019-05-18T03:55:47.687Z,11.30
2019-05-18T03:58:16.731Z,11.20
2019-05-18T04:00:45.902Z,11.10
2019-05-18T04:03:14.964Z,11.10
2019-05-18T04:05:44.087Z,11.10
2019-05-18T04:08:13.380Z,11.00
2019-05-18T04:10:42.520Z,11.00
2019-05-18T04:13:11.751Z,11.00
2019-05-18T04:15:40.908Z,11.00
2019-05-18T04:18:10.038Z,11.00
2019-05-18T04:20:39.274Z,11.00
2019-05-18T04:23:08.405Z,11.10
2019-05-18T04:25:37.568Z,11.10
2019-05-18T04:28:06.669Z,11.20
2019-05-18T04:30:35.737Z,11.20
2019-05-18T04:33:04.853Z,11.20
2019-05-18T04:35:33.929Z,11.20
2019-05-18T04:38:03.039Z,11.20
2019-05-18T04:40:33.723Z,11.30
2019-05-18T04:43:02.824Z,11.30
2019-05-18T04:45:32.048Z,11.30
2019-05-18T04:48:01.189Z,11.30
2019-05-18T04:50:30.300Z,11.30
2019-05-18T04:52:59.237Z,11.40
2019-05-18T04:55:28.384Z,11.40
2019-05-18T04:57:57.660Z,11.50
2019-05-18T05:00:26.761Z,11.50
2019-05-18T05:03:07.125Z,11.50
2019-05-18T05:05:49.589Z,11.50
2019-05-18T05:08:16.216Z,11.50
2019-05-18T05:11:04.513Z,11.50
2019-05-18T05:13:33.605Z,11.60
2019-05-18T05:16:02.614Z,11.60
2019-05-18T05:18:31.884Z,11.60
2019-05-18T05:21:00.899Z,11.70
2019-05-18T05:23:30.023Z,11.70
2019-05-18T05:25:59.096Z,11.70
2019-05-18T05:28:28.092Z,11.80
2019-05-18T05:30:57.130Z,11.80
2019-05-18T05:33:26.320Z,11.80
2019-05-18T05:35:55.258Z,11.90
2019-05-18T05:38:24.365Z,11.90
2019-05-18T05:40:53.364Z,12.00
2019-05-18T05:43:22.341Z,12.00
2019-05-18T05:45:51.435Z,12.10
2019-05-18T05:48:20.468Z,12.10
2019-05-18T05:50:49.573Z,12.20
2019-05-18T05:53:40.982Z,12.30
2019-05-18T05:56:14.423Z,12.40
2019-05-18T05:58:43.523Z,12.50
2019-05-18T06:01:12.636Z,12.60
2019-05-18T06:03:41.888Z,12.70
2019-05-18T06:06:11.190Z,12.90
2019-05-18T06:08:40.300Z,12.90
2019-05-18T06:11:31.861Z,13.00
2019-05-18T06:14:35.533Z,13.10
2019-05-18T06:17:25.191Z,13.20
2019-05-18T06:20:13.602Z,13.30
2019-05-18T06:22:42.635Z,13.40
2019-05-18T06:25:34.215Z,13.60
2019-05-18T06:28:23.532Z,13.70
2019-05-18T06:31:13.330Z,13.70
2019-05-18T06:33:42.408Z,13.80
2019-05-18T06:36:11.617Z,13.90
2019-05-18T06:38:40.689Z,13.90
2019-05-18T06:41:28.956Z,14.00
2019-05-18T06:43:58.468Z,14.10
2019-05-18T06:46:28.466Z,14.10
2019-05-18T06:48:57.588Z,14.20
2019-05-18T06:51:26.738Z,14.30
2019-05-18T06:54:14.907Z,14.30
2019-05-18T06:56:44.410Z,14.50
2019-05-18T06:59:16.321Z,14.50
2019-05-18T07:01:45.421Z,14.70
2019-05-18T07:04:37.236Z,14.70
2019-05-18T07:07:21.520Z,14.80
2019-05-18T07:09:50.654Z,15.00
2019-05-18T07:12:19.792Z,15.10
2019-05-18T07:15:17.087Z,15.10
2019-05-18T07:17:46.249Z,15.30
2019-05-18T07:20:55.126Z,15.40
2019-05-18T07:26:43.489Z,15.60
2019-05-18T07:29:30.941Z,15.70
2019-05-18T07:32:03.136Z,15.80
2019-05-18T07:34:32.291Z,15.90
2019-05-18T07:37:20.536Z,15.90
2019-05-18T07:39:49.747Z,16.00
2019-05-18T07:42:18.871Z,16.20
2019-05-18T07:48:13.520Z,16.30
2019-05-18T07:57:35.572Z,16.70
2019-05-18T08:00:23.736Z,16.80
2019-05-18T08:02:52.976Z,17.10
2019-05-18T08:05:41.296Z,17.30
2019-05-18T08:09:01.831Z,17.40
2019-05-18T08:11:34.852Z,17.50
2019-05-18T08:14:04.021Z,17.70
2019-05-18T08:17:02.500Z,17.80
2019-05-18T08:19:59.740Z,18.00
2019-05-18T08:22:32.343Z,18.20
2019-05-18T08:25:20.761Z,18.30
2019-05-18T08:27:52.809Z,18.40
2019-05-18T08:30:21.892Z,18.60
2019-05-18T08:33:10.205Z,18.80
2019-05-18T08:35:42.658Z,18.90
2019-05-18T08:41:18.935Z,19.00
2019-05-18T08:44:07.205Z,19.10
2019-05-18T08:46:40.253Z,19.30
2019-05-18T08:49:41.609Z,19.50
2019-05-18T08:52:08.180Z,19.40
2019-05-18T08:58:04.924Z,19.30
2019-05-18T09:00:34.205Z,19.30
2019-05-18T09:03:21.210Z,19.30
2019-05-18T09:05:50.252Z,19.40
2019-05-18T09:12:00.789Z,19.50
2019-05-18T09:14:48.973Z,19.50
2019-05-18T09:20:21.201Z,19.50
2019-05-18T09:23:15.306Z,19.60
2019-05-18T09:25:56.484Z,19.80
2019-05-18T09:29:19.091Z,19.90
2019-05-18T09:31:39.612Z,19.90
2019-05-18T09:34:16.229Z,20.10
2019-05-18T09:37:04.597Z,20.10
2019-05-18T09:39:45.975Z,20.20
2019-05-18T09:42:15.191Z,20.20
2019-05-18T09:45:04.918Z,20.40
2019-05-18T09:47:34.097Z,20.60
2019-05-18T09:50:23.389Z,20.80
2019-05-18T09:53:04.793Z,21.10
2019-05-18T09:55:52.361Z,21.40
2019-05-18T09:58:25.134Z,21.50
2019-05-18T10:01:13.369Z,21.70
2019-05-18T10:03:53.723Z,21.70
2019-05-18T10:06:42.130Z,21.60
2019-05-18T10:09:25.759Z,21.60
2019-05-18T10:12:08.704Z,21.60
2019-05-18T10:14:57.016Z,21.40
2019-05-18T10:17:26.107Z,21.50
2019-05-18T10:19:55.147Z,21.50
2019-05-18T10:22:53.793Z,21.50
2019-05-18T10:25:14.561Z,21.50
2019-05-18T10:27:43.655Z,21.30
2019-05-18T10:30:47.434Z,21.20
2019-05-18T10:33:35.764Z,21.10
2019-05-18T10:36:04.836Z,21.00
2019-05-18T10:38:59.212Z,21.20
2019-05-18T10:41:28.160Z,21.70
2019-05-18T10:43:57.276Z,21.90
2019-05-18T10:46:26.157Z,21.60
2019-05-18T10:48:58.308Z,21.50
2019-05-18T10:51:27.412Z,21.40
2019-05-18T10:54:15.713Z,21.30
2019-05-18T10:56:48.707Z,21.30
2019-05-18T10:59:17.763Z,21.60
2019-05-18T11:02:06.302Z,21.90
2019-05-18T11:04:35.427Z,22.00
2019-05-18T11:07:04.663Z,22.10
2019-05-18T11:09:33.794Z,22.40
2019-05-18T11:12:50.250Z,22.80
2019-05-18T11:15:38.453Z,23.00
2019-05-18T11:18:26.763Z,23.20
2019-05-18T11:20:55.861Z,23.50
2019-05-18T11:23:24.899Z,23.70
2019-05-18T11:25:53.981Z,23.80
2019-05-18T11:28:23.027Z,24.00
2019-05-18T11:31:11.240Z,24.00
2019-05-18T11:34:13.016Z,24.00
2019-05-18T11:36:57.553Z,24.00
2019-05-18T11:39:26.713Z,24.20
2019-05-18T11:41:55.863Z,24.40
2019-05-18T11:44:27.872Z,24.60
2019-05-18T11:47:16.038Z,24.90
2019-05-18T11:49:45.168Z,25.20
2019-05-18T11:52:14.723Z,25.30
2019-05-18T11:54:44.079Z,25.40
2019-05-18T11:57:14.784Z,25.40
2019-05-18T11:59:47.332Z,25.50
2019-05-18T12:02:16.454Z,25.60
2019-05-18T12:04:48.669Z,25.80
2019-05-18T12:07:16.405Z,25.90
2019-05-18T12:09:45.502Z,25.90
2019-05-18T12:12:14.691Z,25.70
2019-05-18T12:15:15.451Z,25.60
2019-05-18T12:24:14.622Z,26.70
2019-05-18T12:26:33.388Z,26.60
2019-05-18T12:29:21.657Z,26.80
2019-05-18T12:32:13.159Z,26.80
2019-05-18T12:34:44.944Z,26.90
2019-05-18T12:37:22.162Z,27.00
2019-05-18T12:39:52.433Z,27.10
2019-05-18T12:42:21.732Z,26.90
2019-05-18T12:44:50.986Z,27.00
2019-05-18T12:47:20.088Z,27.00
2019-05-18T12:49:49.147Z,27.10
2019-05-18T12:52:18.157Z,27.20
2019-05-18T12:54:47.374Z,27.30
2019-05-18T12:57:16.555Z,27.30
2019-05-18T12:59:45.676Z,27.10
2019-05-18T13:02:14.871Z,27.10
2019-05-18T13:04:44.067Z,27.10
2019-05-18T13:07:13.172Z,27.40
2019-05-18T13:09:42.287Z,27.40
2019-05-18T13:12:11.864Z,27.20
2019-05-18T13:14:40.962Z,27.50
2019-05-18T13:17:10.042Z,28.10
2019-05-18T13:19:39.179Z,27.90
2019-05-18T13:22:08.280Z,27.70
2019-05-18T13:24:45.294Z,27.60
2019-05-18T13:27:08.268Z,27.50
2019-05-18T13:29:37.431Z,27.30
2019-05-18T13:32:06.603Z,27.30
2019-05-18T13:34:35.738Z,27.20
2019-05-18T13:37:04.866Z,27.30
2019-05-18T13:40:15.584Z,27.00
2019-05-18T13:42:48.208Z,26.60
2019-05-18T13:56:29.323Z,26.80
2019-05-18T13:56:58.923Z,26.70
2019-05-18T13:59:27.996Z,26.60
2019-05-18T14:02:54.439Z,26.80
2019-05-18T14:05:23.504Z,27.00
2019-05-18T14:07:52.656Z,26.90
2019-05-18T14:10:21.872Z,27.00
2019-05-18T14:12:50.941Z,27.20
2019-05-18T14:15:22.733Z,27.20
2019-05-18T14:17:51.144Z,27.10
2019-05-18T14:20:21.772Z,27.30
2019-05-18T14:22:50.950Z,27.00
2019-05-18T14:25:20.448Z,27.00
2019-05-18T14:27:49.721Z,27.20
2019-05-18T14:30:19.387Z,27.20
2019-05-18T14:32:48.531Z,27.10
2019-05-18T14:35:36.899Z,27.30
2019-05-18T14:38:25.286Z,27.40
2019-05-18T14:40:54.524Z,27.10
2019-05-18T14:50:50.686Z,27.20
2019-05-18T15:02:18.145Z,26.90
2019-05-18T15:05:16.057Z,26.80
2019-05-18T15:07:45.268Z,27.00
2019-05-18T15:10:34.702Z,27.30
2019-05-18T15:13:10.704Z,27.30
2019-05-18T15:15:39.829Z,27.40
2019-05-18T15:18:08.931Z,27.20
2019-05-18T15:20:38.333Z,27.40
2019-05-18T15:23:58.185Z,27.60
2019-05-18T15:26:27.364Z,27.70
2019-05-18T15:28:56.488Z,27.60
2019-05-18T15:31:25.629Z,28.10
2019-05-18T15:33:54.711Z,28.40
2019-05-18T15:36:23.819Z,28.20
2019-05-18T15:38:52.879Z,28.10
2019-05-18T15:41:21.960Z,28.10
2019-05-18T15:44:07.333Z,28.10
2019-05-18T15:46:43.103Z,28.00
2019-05-18T15:49:12.661Z,28.40
2019-05-18T15:51:41.748Z,28.70
2019-05-18T15:54:10.869Z,29.10
2019-05-18T15:56:40.002Z,29.10
2019-05-18T15:59:28.310Z,29.00
2019-05-18T16:02:16.564Z,28.60
2019-05-18T16:04:45.649Z,28.80
2019-05-18T16:07:14.747Z,28.90
2019-05-18T16:09:43.801Z,28.80
2019-05-18T16:12:12.932Z,28.90
2019-05-18T16:15:01.109Z,28.80
2019-05-18T16:17:39.569Z,29.00
2019-05-18T16:20:04.626Z,29.10
2019-05-18T16:22:33.787Z,28.90
2019-05-18T16:25:03.010Z,28.80
2019-05-18T16:27:32.215Z,28.70
2019-05-18T16:30:01.445Z,28.60
2019-05-18T16:32:30.472Z,28.30
2019-05-18T16:34:59.475Z,28.40
2019-05-18T16:37:28.501Z,28.50
2019-05-18T16:39:57.571Z,28.60
2019-05-18T16:42:26.715Z,28.50
2019-05-18T16:45:16.503Z,28.40
2019-05-18T16:47:45.673Z,28.30
2019-05-18T16:50:15.025Z,28.60
2019-05-18T16:52:44.157Z,28.50
2019-05-18T16:55:14.262Z,28.50
2019-05-18T16:57:43.396Z,28.50
2019-05-18T17:00:15.889Z,28.30
2019-05-18T17:02:43.864Z,28.30
2019-05-18T17:05:13.816Z,28.20
2019-05-18T17:07:42.934Z,27.80
2019-05-18T17:10:12.483Z,27.60
2019-05-18T17:12:41.675Z,27.40
2019-05-18T17:15:10.825Z,27.40
2019-05-18T17:17:39.928Z,27.50
2019-05-18T17:20:10.598Z,27.50
2019-05-18T17:22:39.813Z,27.40
2019-05-18T17:25:09.124Z,27.30
2019-05-18T17:27:38.240Z,27.40
2019-05-18T17:30:09.097Z,27.50
2019-05-18T17:32:38.182Z,27.40
2019-05-18T17:35:07.933Z,27.20
2019-05-18T17:37:37.074Z,26.90
2019-05-18T17:43:55.900Z,26.30
2019-05-18T17:46:12.824Z,26.10
2019-05-18T17:48:42.053Z,25.90
2019-05-18T17:51:11.208Z,25.60
2019-05-18T17:53:40.317Z,25.60
2019-05-18T17:56:09.395Z,25.50
2019-05-18T17:58:38.395Z,25.30
2019-05-18T18:01:07.472Z,25.00
2019-05-18T18:03:55.661Z,24.80
2019-05-18T18:06:24.669Z,24.60
2019-05-18T18:08:53.744Z,24.40
2019-05-18T18:12:05.405Z,24.30
2019-05-18T18:14:32.906Z,24.20
2019-05-18T18:17:30.550Z,24.20
2019-05-18T18:20:18.796Z,24.20
2019-05-18T18:22:47.923Z,24.10
2019-05-18T18:25:17.367Z,24.10
2019-05-18T18:27:46.452Z,24.00
2019-05-18T18:30:16.212Z,23.90
2019-05-18T18:32:45.296Z,24.00
2019-05-18T18:35:14.592Z,24.00
2019-05-18T18:37:43.758Z,23.90
2019-05-18T18:40:13.051Z,23.80
2019-05-18T18:42:42.033Z,23.80
2019-05-18T18:45:12.770Z,23.70
2019-05-18T18:47:41.848Z,23.70
2019-05-18T18:50:11.214Z,23.60
2019-05-18T18:52:40.450Z,23.50
2019-05-18T18:55:09.729Z,23.30
2019-05-18T18:57:41.824Z,23.10
2019-05-18T19:00:10.248Z,23.10
2019-05-18T19:02:39.480Z,22.80
2019-05-18T19:05:09.837Z,22.40
2019-05-18T19:07:38.973Z,22.00
2019-05-18T19:10:08.373Z,21.60
2019-05-18T19:12:37.517Z,21.40
2019-05-18T19:15:06.903Z,21.10
2019-05-18T19:17:36.023Z,20.90
2019-05-18T19:20:05.258Z,20.60
2019-05-18T19:22:34.287Z,20.50
2019-05-18T19:25:03.530Z,20.20
2019-05-18T19:27:32.623Z,20.10
2019-05-18T19:30:01.721Z,19.80
2019-05-18T19:32:30.724Z,19.60
2019-05-18T19:34:59.835Z,19.40
2019-05-18T19:37:28.839Z,19.40
2019-05-18T19:39:57.836Z,19.30
2019-05-18T19:42:26.956Z,19.20
2019-05-18T19:44:56.077Z,19.10
2019-05-18T19:47:44.268Z,18.80
2019-05-18T19:50:36.289Z,18.50
2019-05-18T19:53:24.524Z,18.10
2019-05-18T19:55:53.730Z,17.80
2019-05-18T19:58:22.851Z,17.60
2019-05-18T20:00:52.024Z,17.50
2019-05-18T20:03:21.129Z,17.50
2019-05-18T20:05:50.217Z,17.40
2019-05-18T20:08:19.265Z,17.20
2019-05-18T20:10:48.378Z,17.10
2019-05-18T20:13:17.569Z,17.00
2019-05-18T20:15:46.755Z,17.00
2019-05-18T20:18:15.825Z,16.90
2019-05-18T20:21:04.005Z,16.90
2019-05-18T20:23:33.070Z,16.80
2019-05-18T20:26:02.189Z,16.70
2019-05-18T20:28:31.447Z,16.60
2019-05-18T20:31:00.579Z,16.60
2019-05-18T20:33:29.613Z,16.60
2019-05-18T20:35:58.596Z,16.50
2019-05-18T20:38:27.601Z,16.40
2019-05-18T20:40:56.645Z,16.40
2019-05-18T20:43:25.790Z,16.40
2019-05-18T20:45:54.988Z,16.40
2019-05-18T20:48:24.080Z,16.30
2019-05-18T20:50:53.111Z,16.20
2019-05-18T20:53:22.053Z,16.10
2019-05-18T20:55:51.171Z,16.00
2019-05-18T20:58:20.363Z,16.00
2019-05-18T21:00:49.445Z,15.90
2019-05-18T21:03:18.585Z,16.00
2019-05-18T21:05:47.778Z,15.90
2019-05-18T21:08:16.936Z,15.80
2019-05-18T21:10:45.931Z,15.80
2019-05-18T21:13:15.105Z,15.70
2019-05-18T21:15:44.129Z,15.70
2019-05-18T21:18:13.219Z,15.60
2019-05-18T21:20:42.320Z,15.50
2019-05-18T21:23:11.440Z,15.50
2019-05-18T21:25:40.566Z,15.40
2019-05-18T21:28:09.575Z,15.40
2019-05-18T21:30:38.626Z,15.30
2019-05-18T21:33:07.624Z,15.30
2019-05-18T21:35:36.675Z,15.20
2019-05-18T21:38:05.804Z,15.20
2019-05-18T21:40:34.940Z,15.10
2019-05-18T21:43:04.047Z,15.00
2019-05-18T21:45:33.125Z,15.10
2019-05-18T21:48:02.395Z,15.00
2019-05-18T21:50:31.478Z,15.00
2019-05-18T21:53:00.574Z,15.00
2019-05-18T21:55:29.658Z,14.90
2019-05-18T21:57:59.075Z,14.90
2019-05-18T22:01:07.332Z,14.90
2019-05-18T22:04:08.364Z,14.90
2019-05-18T22:06:41.061Z,14.90
2019-05-18T22:09:47.877Z,14.90
2019-05-18T22:12:39.712Z,14.90
2019-05-18T22:15:09.330Z,14.90
2019-05-18T22:17:57.426Z,14.90
2019-05-18T22:20:26.514Z,14.90
2019-05-18T22:22:55.537Z,14.90
2019-05-18T22:25:24.624Z,14.90
2019-05-18T22:27:53.822Z,14.90
2019-05-18T22:30:23.035Z,14.90
2019-05-18T22:32:52.152Z,14.80
2019-05-18T22:35:21.436Z,14.60
2019-05-18T22:38:39.480Z,14.50
2019-05-18T22:41:08.687Z,14.50
2019-05-18T22:43:37.826Z,14.60
2019-05-18T22:46:06.829Z,14.60
2019-05-18T22:48:41.243Z,14.70
2019-05-18T22:51:06.959Z,14.60
2019-05-18T22:53:36.117Z,14.60
2019-05-18T22:56:34.568Z,14.60
2019-05-18T22:59:03.671Z,14.60
2019-05-18T23:01:32.864Z,14.60
2019-05-18T23:04:01.963Z,14.60
2019-05-18T23:06:30.983Z,14.60
2019-05-18T23:09:00.173Z,14.60
2019-05-18T23:11:29.499Z,14.70
2019-05-18T23:13:58.576Z,14.70
2019-05-18T23:18:57.446Z,14.50
2019-05-18T23:21:26.616Z,14.50
2019-05-18T23:23:55.788Z,14.50
2019-05-18T23:26:24.914Z,14.50
2019-05-18T23:28:53.923Z,14.50
2019-05-18T23:31:22.934Z,14.50
2019-05-18T23:33:51.991Z,14.50
2019-05-18T23:36:21.021Z,14.50
2019-05-18T23:38:50.116Z,14.50
2019-05-18T23:41:19.251Z,14.50
2019-05-18T23:43:48.280Z,14.40
2019-05-18T23:46:17.386Z,14.40
2019-05-18T23:48:46.544Z,14.40
2019-05-18T23:51:15.662Z,14.30
2019-05-18T23:53:44.730Z,14.30
2019-05-18T23:56:13.796Z,14.30
2019-05-18T23:58:42.806Z,14.30
